sensor_id;sensor_type;location;lat;lon;timestamp;P1;durP1;ratioP1;P2;durP2;ratioP2
73337;SDS011;61575;49.908;35.556;2023-12-22T00:02:03;22.13;;;11.10;;
73337;SDS011;61575;49.908;35.556;2023-12-22T00:05:06;42.20;;;14.43;;
73337;SDS011;61575;49.908;35.556;2023-12-22T00:08:08;39.25;;;13.10;;
73337;SDS011;61575;49.908;35.556;2023-12-22T00:11:11;47.25;;;13.18;;
73337;SDS011;61575;49.908;35.556;2023-12-22T00:14:13;129.77;;;35.83;;
73337;SDS011;61575;49.908;35.556;2023-12-22T00:17:15;42.47;;;12.82;;
73337;SDS011;61575;49.908;35.556;2023-12-22T00:20:17;47.93;;;15.43;;
73337;SDS011;61575;49.908;35.556;2023-12-22T00:23:20;60.47;;;16.77;;
73337;SDS011;61575;49.908;35.556;2023-12-22T00:26:22;67.73;;;20.23;;
73337;SDS011;61575;49.908;35.556;2023-12-22T00:29:25;102.30;;;21.37;;
73337;SDS011;61575;49.908;35.556;2023-12-22T00:32:27;61.35;;;18.35;;
73337;SDS011;61575;49.908;35.556;2023-12-22T00:35:29;40.60;;;15.80;;
73337;SDS011;61575;49.908;35.556;2023-12-22T00:38:31;97.80;;;17.70;;
73337;SDS011;61575;49.908;35.556;2023-12-22T00:41:33;58.30;;;13.02;;
73337;SDS011;61575;49.908;35.556;2023-12-22T00:44:36;38.08;;;9.82;;
73337;SDS011;61575;49.908;35.556;2023-12-22T00:47:38;54.65;;;11.63;;
73337;SDS011;61575;49.908;35.556;2023-12-22T00:50:40;58.90;;;11.97;;
73337;SDS011;61575;49.908;35.556;2023-12-22T00:53:42;60.60;;;13.93;;
73337;SDS011;61575;49.908;35.556;2023-12-22T00:56:44;34.88;;;10.95;;
73337;SDS011;61575;49.908;35.556;2023-12-22T00:59:46;54.97;;;11.00;;
73337;SDS011;61575;49.908;35.556;2023-12-22T01:02:49;85.63;;;11.75;;
73337;SDS011;61575;49.908;35.556;2023-12-22T01:05:51;88.40;;;11.90;;
73337;SDS011;61575;49.908;35.556;2023-12-22T01:08:54;37.58;;;11.23;;
73337;SDS011;61575;49.908;35.556;2023-12-22T01:11:56;32.70;;;11.55;;
73337;SDS011;61575;49.908;35.556;2023-12-22T01:14:58;39.93;;;11.97;;
73337;SDS011;61575;49.908;35.556;2023-12-22T01:18:00;58.57;;;10.80;;
73337;SDS011;61575;49.908;35.556;2023-12-22T01:21:02;42.83;;;11.75;;
73337;SDS011;61575;49.908;35.556;2023-12-22T01:24:07;39.90;;;14.40;;
73337;SDS011;61575;49.908;35.556;2023-12-22T01:27:10;84.80;;;30.42;;
73337;SDS011;61575;49.908;35.556;2023-12-22T01:30:12;79.37;;;29.73;;
73337;SDS011;61575;49.908;35.556;2023-12-22T01:33:14;115.00;;;40.10;;
73337;SDS011;61575;49.908;35.556;2023-12-22T01:36:16;132.52;;;27.45;;
73337;SDS011;61575;49.908;35.556;2023-12-22T01:39:18;58.50;;;20.53;;
73337;SDS011;61575;49.908;35.556;2023-12-22T01:42:20;80.50;;;20.07;;
73337;SDS011;61575;49.908;35.556;2023-12-22T01:45:22;86.80;;;20.02;;
73337;SDS011;61575;49.908;35.556;2023-12-22T01:48:25;56.13;;;18.00;;
73337;SDS011;61575;49.908;35.556;2023-12-22T01:51:28;71.82;;;18.50;;
73337;SDS011;61575;49.908;35.556;2023-12-22T01:54:32;41.85;;;13.75;;
73337;SDS011;61575;49.908;35.556;2023-12-22T01:57:36;42.67;;;14.32;;
73337;SDS011;61575;49.908;35.556;2023-12-22T02:00:38;31.85;;;11.85;;
73337;SDS011;61575;49.908;35.556;2023-12-22T02:03:40;29.80;;;11.77;;
73337;SDS011;61575;49.908;35.556;2023-12-22T02:06:42;28.73;;;10.75;;
73337;SDS011;61575;49.908;35.556;2023-12-22T02:09:45;28.38;;;11.30;;
73337;SDS011;61575;49.908;35.556;2023-12-22T02:12:47;29.40;;;10.53;;
73337;SDS011;61575;49.908;35.556;2023-12-22T02:15:51;31.05;;;11.48;;
73337;SDS011;61575;49.908;35.556;2023-12-22T02:19:12;26.65;;;10.25;;
73337;SDS011;61575;49.908;35.556;2023-12-22T02:22:28;29.08;;;11.30;;
73337;SDS011;61575;49.908;35.556;2023-12-22T02:25:31;29.50;;;10.52;;
73337;SDS011;61575;49.908;35.556;2023-12-22T02:28:33;26.75;;;10.43;;
73337;SDS011;61575;49.908;35.556;2023-12-22T02:31:40;28.23;;;10.93;;
73337;SDS011;61575;49.908;35.556;2023-12-22T02:34:47;26.92;;;11.25;;
73337;SDS011;61575;49.908;35.556;2023-12-22T02:37:52;23.80;;;9.85;;
73337;SDS011;61575;49.908;35.556;2023-12-22T02:40:55;27.00;;;10.57;;
73337;SDS011;61575;49.908;35.556;2023-12-22T02:43:58;24.48;;;10.35;;
73337;SDS011;61575;49.908;35.556;2023-12-22T02:47:01;26.05;;;10.63;;
73337;SDS011;61575;49.908;35.556;2023-12-22T02:50:03;26.00;;;10.50;;
73337;SDS011;61575;49.908;35.556;2023-12-22T02:53:05;26.92;;;11.68;;
73337;SDS011;61575;49.908;35.556;2023-12-22T02:56:07;27.00;;;10.88;;
73337;SDS011;61575;49.908;35.556;2023-12-22T02:59:10;27.33;;;10.73;;
73337;SDS011;61575;49.908;35.556;2023-12-22T03:02:12;25.70;;;10.88;;
73337;SDS011;61575;49.908;35.556;2023-12-22T03:05:14;25.27;;;10.37;;
73337;SDS011;61575;49.908;35.556;2023-12-22T03:08:16;26.27;;;10.63;;
73337;SDS011;61575;49.908;35.556;2023-12-22T03:11:18;37.73;;;10.60;;
73337;SDS011;61575;49.908;35.556;2023-12-22T03:14:20;30.33;;;10.57;;
73337;SDS011;61575;49.908;35.556;2023-12-22T03:17:22;38.37;;;10.83;;
73337;SDS011;61575;49.908;35.556;2023-12-22T03:20:24;43.37;;;11.20;;
73337;SDS011;61575;49.908;35.556;2023-12-22T03:23:26;40.67;;;11.67;;
73337;SDS011;61575;49.908;35.556;2023-12-22T03:26:28;54.90;;;12.67;;
73337;SDS011;61575;49.908;35.556;2023-12-22T03:29:30;42.43;;;9.43;;
73337;SDS011;61575;49.908;35.556;2023-12-22T03:32:32;54.13;;;10.77;;
73337;SDS011;61575;49.908;35.556;2023-12-22T03:35:35;88.87;;;12.73;;
73337;SDS011;61575;49.908;35.556;2023-12-22T03:38:37;55.80;;;11.77;;
73337;SDS011;61575;49.908;35.556;2023-12-22T03:41:39;41.33;;;11.80;;
73337;SDS011;61575;49.908;35.556;2023-12-22T03:44:41;47.25;;;10.63;;
73337;SDS011;61575;49.908;35.556;2023-12-22T03:47:43;71.57;;;13.17;;
73337;SDS011;61575;49.908;35.556;2023-12-22T03:50:45;47.33;;;11.10;;
73337;SDS011;61575;49.908;35.556;2023-12-22T03:53:47;38.47;;;10.47;;
73337;SDS011;61575;49.908;35.556;2023-12-22T03:56:49;29.80;;;9.83;;
73337;SDS011;61575;49.908;35.556;2023-12-22T03:59:51;33.17;;;10.10;;
73337;SDS011;61575;49.908;35.556;2023-12-22T04:02:53;24.30;;;9.07;;
73337;SDS011;61575;49.908;35.556;2023-12-22T04:06:01;24.92;;;8.15;;
73337;SDS011;61575;49.908;35.556;2023-12-22T04:09:04;21.25;;;9.10;;
73337;SDS011;61575;49.908;35.556;2023-12-22T04:12:06;23.60;;;9.33;;
73337;SDS011;61575;49.908;35.556;2023-12-22T04:15:08;23.67;;;9.25;;
73337;SDS011;61575;49.908;35.556;2023-12-22T04:18:11;21.70;;;9.45;;
73337;SDS011;61575;49.908;35.556;2023-12-22T04:21:13;23.13;;;10.13;;
73337;SDS011;61575;49.908;35.556;2023-12-22T04:24:15;27.33;;;11.57;;
73337;SDS011;61575;49.908;35.556;2023-12-22T04:27:17;23.63;;;9.93;;
73337;SDS011;61575;49.908;35.556;2023-12-22T04:30:19;22.02;;;9.18;;
73337;SDS011;61575;49.908;35.556;2023-12-22T04:33:21;22.27;;;9.43;;
73337;SDS011;61575;49.908;35.556;2023-12-22T04:36:25;22.13;;;9.40;;
73337;SDS011;61575;49.908;35.556;2023-12-22T04:39:27;26.27;;;9.70;;
73337;SDS011;61575;49.908;35.556;2023-12-22T04:42:29;27.75;;;11.57;;
73337;SDS011;61575;49.908;35.556;2023-12-22T04:45:31;24.35;;;10.00;;
73337;SDS011;61575;49.908;35.556;2023-12-22T04:48:33;27.70;;;10.20;;
73337;SDS011;61575;49.908;35.556;2023-12-22T04:51:35;31.83;;;12.25;;
73337;SDS011;61575;49.908;35.556;2023-12-22T04:54:38;52.97;;;25.87;;
73337;SDS011;61575;49.908;35.556;2023-12-22T04:57:40;45.75;;;23.25;;
73337;SDS011;61575;49.908;35.556;2023-12-22T05:00:42;65.25;;;36.38;;
73337;SDS011;61575;49.908;35.556;2023-12-22T05:03:44;54.77;;;28.17;;
73337;SDS011;61575;49.908;35.556;2023-12-22T05:06:47;34.80;;;18.02;;
73337;SDS011;61575;49.908;35.556;2023-12-22T05:09:49;26.88;;;11.95;;
73337;SDS011;61575;49.908;35.556;2023-12-22T05:12:53;22.08;;;10.75;;
73337;SDS011;61575;49.908;35.556;2023-12-22T05:15:55;20.40;;;10.00;;
73337;SDS011;61575;49.908;35.556;2023-12-22T05:18:58;22.00;;;10.53;;
73337;SDS011;61575;49.908;35.556;2023-12-22T05:22:00;23.88;;;11.43;;
73337;SDS011;61575;49.908;35.556;2023-12-22T05:25:02;26.33;;;11.85;;
73337;SDS011;61575;49.908;35.556;2023-12-22T05:28:05;27.02;;;12.02;;
73337;SDS011;61575;49.908;35.556;2023-12-22T05:31:07;24.70;;;11.50;;
73337;SDS011;61575;49.908;35.556;2023-12-22T05:34:09;26.20;;;10.82;;
73337;SDS011;61575;49.908;35.556;2023-12-22T05:37:12;28.05;;;11.80;;
73337;SDS011;61575;49.908;35.556;2023-12-22T05:40:15;27.25;;;12.30;;
73337;SDS011;61575;49.908;35.556;2023-12-22T05:43:18;22.40;;;9.85;;
73337;SDS011;61575;49.908;35.556;2023-12-22T05:46:20;29.07;;;10.17;;
73337;SDS011;61575;49.908;35.556;2023-12-22T05:49:22;23.20;;;9.60;;
73337;SDS011;61575;49.908;35.556;2023-12-22T05:52:25;54.88;;;12.10;;
73337;SDS011;61575;49.908;35.556;2023-12-22T05:55:27;32.00;;;11.37;;
73337;SDS011;61575;49.908;35.556;2023-12-22T05:58:30;55.30;;;13.57;;
73337;SDS011;61575;49.908;35.556;2023-12-22T06:01:33;34.17;;;12.80;;
73337;SDS011;61575;49.908;35.556;2023-12-22T06:04:35;38.03;;;12.32;;
73337;SDS011;61575;49.908;35.556;2023-12-22T06:07:37;65.57;;;11.90;;
73337;SDS011;61575;49.908;35.556;2023-12-22T06:10:39;27.73;;;10.67;;
73337;SDS011;61575;49.908;35.556;2023-12-22T06:16:44;33.17;;;11.50;;
73337;SDS011;61575;49.908;35.556;2023-12-22T06:19:46;37.73;;;12.97;;
73337;SDS011;61575;49.908;35.556;2023-12-22T06:22:48;33.50;;;11.35;;
73337;SDS011;61575;49.908;35.556;2023-12-22T06:25:50;46.13;;;11.50;;
73337;SDS011;61575;49.908;35.556;2023-12-22T06:28:52;45.05;;;12.50;;
73337;SDS011;61575;49.908;35.556;2023-12-22T06:31:55;52.53;;;13.35;;
73337;SDS011;61575;49.908;35.556;2023-12-22T06:34:57;39.77;;;11.90;;
73337;SDS011;61575;49.908;35.556;2023-12-22T06:38:01;98.90;;;13.48;;
73337;SDS011;61575;49.908;35.556;2023-12-22T06:41:06;36.78;;;11.30;;
73337;SDS011;61575;49.908;35.556;2023-12-22T06:44:08;40.58;;;11.90;;
73337;SDS011;61575;49.908;35.556;2023-12-22T06:47:12;36.05;;;12.27;;
73337;SDS011;61575;49.908;35.556;2023-12-22T06:50:14;29.98;;;11.70;;
73337;SDS011;61575;49.908;35.556;2023-12-22T06:53:17;37.05;;;11.82;;
73337;SDS011;61575;49.908;35.556;2023-12-22T06:56:27;30.80;;;11.40;;
73337;SDS011;61575;49.908;35.556;2023-12-22T06:59:32;33.08;;;12.88;;
73337;SDS011;61575;49.908;35.556;2023-12-22T07:02:35;36.95;;;13.07;;
73337;SDS011;61575;49.908;35.556;2023-12-22T07:05:38;32.80;;;13.45;;
73337;SDS011;61575;49.908;35.556;2023-12-22T07:08:40;31.42;;;12.00;;
73337;SDS011;61575;49.908;35.556;2023-12-22T07:11:48;37.13;;;13.95;;
73337;SDS011;61575;49.908;35.556;2023-12-22T07:14:52;34.53;;;13.77;;
73337;SDS011;61575;49.908;35.556;2023-12-22T07:17:54;57.43;;;15.73;;
73337;SDS011;61575;49.908;35.556;2023-12-22T07:20:57;36.38;;;14.35;;
73337;SDS011;61575;49.908;35.556;2023-12-22T07:24:00;35.83;;;15.23;;
73337;SDS011;61575;49.908;35.556;2023-12-22T07:30:05;37.25;;;13.55;;
73337;SDS011;61575;49.908;35.556;2023-12-22T07:33:08;38.53;;;14.38;;
73337;SDS011;61575;49.908;35.556;2023-12-22T07:36:13;35.28;;;13.63;;
73337;SDS011;61575;49.908;35.556;2023-12-22T07:39:15;33.03;;;14.02;;
73337;SDS011;61575;49.908;35.556;2023-12-22T07:42:18;33.92;;;13.65;;
73337;SDS011;61575;49.908;35.556;2023-12-22T07:45:20;33.72;;;14.25;;
73337;SDS011;61575;49.908;35.556;2023-12-22T07:48:22;35.63;;;14.63;;
73337;SDS011;61575;49.908;35.556;2023-12-22T07:51:26;34.65;;;14.48;;
73337;SDS011;61575;49.908;35.556;2023-12-22T07:54:28;32.53;;;13.60;;
73337;SDS011;61575;49.908;35.556;2023-12-22T07:57:30;35.17;;;14.60;;
73337;SDS011;61575;49.908;35.556;2023-12-22T08:00:32;36.80;;;13.80;;
73337;SDS011;61575;49.908;35.556;2023-12-22T08:03:35;35.97;;;16.33;;
73337;SDS011;61575;49.908;35.556;2023-12-22T08:06:38;47.15;;;20.02;;
73337;SDS011;61575;49.908;35.556;2023-12-22T08:09:41;40.42;;;15.30;;
73337;SDS011;61575;49.908;35.556;2023-12-22T08:12:43;34.25;;;14.98;;
73337;SDS011;61575;49.908;35.556;2023-12-22T08:15:45;37.55;;;15.57;;
73337;SDS011;61575;49.908;35.556;2023-12-22T08:18:48;38.67;;;16.05;;
73337;SDS011;61575;49.908;35.556;2023-12-22T08:21:51;37.38;;;14.98;;
73337;SDS011;61575;49.908;35.556;2023-12-22T08:24:54;37.88;;;14.85;;
73337;SDS011;61575;49.908;35.556;2023-12-22T08:27:57;34.80;;;15.18;;
73337;SDS011;61575;49.908;35.556;2023-12-22T08:30:59;48.33;;;17.20;;
73337;SDS011;61575;49.908;35.556;2023-12-22T08:34:01;42.70;;;15.77;;
73337;SDS011;61575;49.908;35.556;2023-12-22T08:37:03;43.10;;;16.13;;
73337;SDS011;61575;49.908;35.556;2023-12-22T08:40:05;42.77;;;16.97;;
73337;SDS011;61575;49.908;35.556;2023-12-22T08:43:08;41.72;;;16.55;;
73337;SDS011;61575;49.908;35.556;2023-12-22T08:46:10;33.97;;;13.23;;
73337;SDS011;61575;49.908;35.556;2023-12-22T08:49:13;43.08;;;16.55;;
73337;SDS011;61575;49.908;35.556;2023-12-22T08:52:16;43.58;;;15.90;;
73337;SDS011;61575;49.908;35.556;2023-12-22T08:55:18;41.63;;;16.03;;
73337;SDS011;61575;49.908;35.556;2023-12-22T08:58:20;35.88;;;15.38;;
73337;SDS011;61575;49.908;35.556;2023-12-22T09:01:22;45.23;;;16.03;;
73337;SDS011;61575;49.908;35.556;2023-12-22T09:04:26;37.00;;;16.27;;
73337;SDS011;61575;49.908;35.556;2023-12-22T09:07:28;44.30;;;16.77;;
73337;SDS011;61575;49.908;35.556;2023-12-22T09:10:30;39.90;;;16.27;;
73337;SDS011;61575;49.908;35.556;2023-12-22T09:13:33;38.67;;;15.10;;
73337;SDS011;61575;49.908;35.556;2023-12-22T09:16:37;36.65;;;15.68;;
73337;SDS011;61575;49.908;35.556;2023-12-22T09:19:39;37.40;;;15.70;;
73337;SDS011;61575;49.908;35.556;2023-12-22T09:22:41;35.08;;;15.25;;
73337;SDS011;61575;49.908;35.556;2023-12-22T09:25:44;32.53;;;14.90;;
73337;SDS011;61575;49.908;35.556;2023-12-22T09:28:46;35.87;;;14.53;;
73337;SDS011;61575;49.908;35.556;2023-12-22T09:31:48;31.83;;;14.10;;
73337;SDS011;61575;49.908;35.556;2023-12-22T09:34:50;30.92;;;12.77;;
73337;SDS011;61575;49.908;35.556;2023-12-22T09:37:53;31.58;;;14.57;;
73337;SDS011;61575;49.908;35.556;2023-12-22T09:40:55;30.38;;;13.15;;
73337;SDS011;61575;49.908;35.556;2023-12-22T09:43:59;31.10;;;13.48;;
73337;SDS011;61575;49.908;35.556;2023-12-22T09:47:03;31.45;;;13.32;;
73337;SDS011;61575;49.908;35.556;2023-12-22T09:50:07;26.55;;;13.18;;
73337;SDS011;61575;49.908;35.556;2023-12-22T09:53:13;30.08;;;13.80;;
73337;SDS011;61575;49.908;35.556;2023-12-22T09:56:16;30.95;;;13.93;;
73337;SDS011;61575;49.908;35.556;2023-12-22T09:59:20;28.20;;;13.30;;
73337;SDS011;61575;49.908;35.556;2023-12-22T10:02:26;31.20;;;14.13;;
73337;SDS011;61575;49.908;35.556;2023-12-22T10:05:31;30.63;;;13.95;;
73337;SDS011;61575;49.908;35.556;2023-12-22T10:08:33;28.42;;;13.85;;
73337;SDS011;61575;49.908;35.556;2023-12-22T10:11:37;28.50;;;13.10;;
73337;SDS011;61575;49.908;35.556;2023-12-22T10:14:39;30.77;;;14.13;;
73337;SDS011;61575;49.908;35.556;2023-12-22T10:17:43;27.95;;;12.40;;
73337;SDS011;61575;49.908;35.556;2023-12-22T10:20:45;24.67;;;11.63;;
73337;SDS011;61575;49.908;35.556;2023-12-22T10:23:48;25.52;;;11.57;;
73337;SDS011;61575;49.908;35.556;2023-12-22T10:26:50;25.10;;;12.90;;
73337;SDS011;61575;49.908;35.556;2023-12-22T10:29:56;24.90;;;12.00;;
73337;SDS011;61575;49.908;35.556;2023-12-22T10:32:58;24.40;;;11.88;;
73337;SDS011;61575;49.908;35.556;2023-12-22T10:36:01;23.83;;;12.50;;
73337;SDS011;61575;49.908;35.556;2023-12-22T10:39:03;26.83;;;13.23;;
73337;SDS011;61575;49.908;35.556;2023-12-22T10:42:09;27.05;;;14.00;;
73337;SDS011;61575;49.908;35.556;2023-12-22T10:45:12;27.75;;;13.70;;
73337;SDS011;61575;49.908;35.556;2023-12-22T10:48:15;29.15;;;13.63;;
73337;SDS011;61575;49.908;35.556;2023-12-22T10:51:17;28.52;;;13.77;;
73337;SDS011;61575;49.908;35.556;2023-12-22T10:54:20;32.58;;;15.57;;
73337;SDS011;61575;49.908;35.556;2023-12-22T10:57:22;30.87;;;14.73;;
73337;SDS011;61575;49.908;35.556;2023-12-22T11:00:24;33.67;;;16.25;;
73337;SDS011;61575;49.908;35.556;2023-12-22T11:03:29;33.17;;;16.08;;
73337;SDS011;61575;49.908;35.556;2023-12-22T11:06:35;30.60;;;15.55;;
73337;SDS011;61575;49.908;35.556;2023-12-22T11:09:39;30.17;;;15.20;;
73337;SDS011;61575;49.908;35.556;2023-12-22T11:12:45;33.97;;;15.65;;
73337;SDS011;61575;49.908;35.556;2023-12-22T11:15:49;30.63;;;15.57;;
73337;SDS011;61575;49.908;35.556;2023-12-22T11:18:52;32.58;;;15.52;;
73337;SDS011;61575;49.908;35.556;2023-12-22T11:21:57;29.45;;;14.73;;
73337;SDS011;61575;49.908;35.556;2023-12-22T11:25:00;35.65;;;15.95;;
73337;SDS011;61575;49.908;35.556;2023-12-22T11:28:04;32.95;;;15.85;;
73337;SDS011;61575;49.908;35.556;2023-12-22T11:31:08;39.50;;;17.27;;
73337;SDS011;61575;49.908;35.556;2023-12-22T11:34:12;34.05;;;16.67;;
73337;SDS011;61575;49.908;35.556;2023-12-22T11:37:20;39.75;;;17.38;;
73337;SDS011;61575;49.908;35.556;2023-12-22T11:40:22;32.13;;;15.57;;
73337;SDS011;61575;49.908;35.556;2023-12-22T11:43:24;30.35;;;14.65;;
73337;SDS011;61575;49.908;35.556;2023-12-22T11:49:35;29.10;;;14.30;;
73337;SDS011;61575;49.908;35.556;2023-12-22T11:52:38;30.52;;;14.73;;
73337;SDS011;61575;49.908;35.556;2023-12-22T11:56:01;32.15;;;14.57;;
73337;SDS011;61575;49.908;35.556;2023-12-22T11:59:09;29.77;;;15.18;;
73337;SDS011;61575;49.908;35.556;2023-12-22T12:02:12;32.67;;;16.42;;
73337;SDS011;61575;49.908;35.556;2023-12-22T12:05:14;27.00;;;13.43;;
73337;SDS011;61575;49.908;35.556;2023-12-22T12:08:17;26.88;;;14.27;;
73337;SDS011;61575;49.908;35.556;2023-12-22T12:14:57;29.42;;;13.43;;
73337;SDS011;61575;49.908;35.556;2023-12-22T12:18:08;29.52;;;14.20;;
73337;SDS011;61575;49.908;35.556;2023-12-22T12:21:11;30.90;;;14.27;;
73337;SDS011;61575;49.908;35.556;2023-12-22T12:24:13;28.15;;;14.15;;
73337;SDS011;61575;49.908;35.556;2023-12-22T12:27:19;31.35;;;15.05;;
73337;SDS011;61575;49.908;35.556;2023-12-22T12:30:21;29.52;;;13.60;;
73337;SDS011;61575;49.908;35.556;2023-12-22T12:33:23;31.20;;;14.43;;
73337;SDS011;61575;49.908;35.556;2023-12-22T12:36:26;26.33;;;13.52;;
73337;SDS011;61575;49.908;35.556;2023-12-22T12:39:29;24.85;;;12.27;;
73337;SDS011;61575;49.908;35.556;2023-12-22T12:42:33;27.75;;;12.57;;
73337;SDS011;61575;49.908;35.556;2023-12-22T12:45:43;24.15;;;11.95;;
73337;SDS011;61575;49.908;35.556;2023-12-22T12:51:48;25.25;;;11.85;;
73337;SDS011;61575;49.908;35.556;2023-12-22T12:54:50;26.25;;;12.85;;
73337;SDS011;61575;49.908;35.556;2023-12-22T12:57:54;28.23;;;13.07;;
73337;SDS011;61575;49.908;35.556;2023-12-22T13:01:09;29.80;;;14.45;;
73337;SDS011;61575;49.908;35.556;2023-12-22T13:04:38;28.45;;;13.55;;
73337;SDS011;61575;49.908;35.556;2023-12-22T13:07:41;29.50;;;14.02;;
73337;SDS011;61575;49.908;35.556;2023-12-22T13:10:42;28.43;;;13.67;;
73337;SDS011;61575;49.908;35.556;2023-12-22T13:13:45;25.87;;;13.20;;
73337;SDS011;61575;49.908;35.556;2023-12-22T13:16:47;33.70;;;13.98;;
73337;SDS011;61575;49.908;35.556;2023-12-22T13:19:49;28.65;;;14.15;;
73337;SDS011;61575;49.908;35.556;2023-12-22T13:22:52;30.05;;;13.93;;
73337;SDS011;61575;49.908;35.556;2023-12-22T13:25:54;37.67;;;19.48;;
73337;SDS011;61575;49.908;35.556;2023-12-22T13:28:57;33.15;;;16.33;;
73337;SDS011;61575;49.908;35.556;2023-12-22T13:32:01;28.48;;;14.20;;
73337;SDS011;61575;49.908;35.556;2023-12-22T13:35:03;28.77;;;13.40;;
73337;SDS011;61575;49.908;35.556;2023-12-22T13:41:12;24.35;;;11.98;;
73337;SDS011;61575;49.908;35.556;2023-12-22T13:44:14;24.25;;;12.13;;
73337;SDS011;61575;49.908;35.556;2023-12-22T13:47:16;27.67;;;13.32;;
73337;SDS011;61575;49.908;35.556;2023-12-22T13:50:20;24.85;;;12.80;;
73337;SDS011;61575;49.908;35.556;2023-12-22T13:53:25;28.02;;;12.93;;
73337;SDS011;61575;49.908;35.556;2023-12-22T13:56:32;27.55;;;13.93;;
73337;SDS011;61575;49.908;35.556;2023-12-22T13:59:36;27.55;;;14.18;;
73337;SDS011;61575;49.908;35.556;2023-12-22T14:02:39;29.43;;;13.93;;
73337;SDS011;61575;49.908;35.556;2023-12-22T14:05:42;32.08;;;14.75;;
73337;SDS011;61575;49.908;35.556;2023-12-22T14:08:45;26.92;;;14.27;;
73337;SDS011;61575;49.908;35.556;2023-12-22T14:11:47;26.83;;;13.87;;
73337;SDS011;61575;49.908;35.556;2023-12-22T14:15:02;27.17;;;13.73;;
73337;SDS011;61575;49.908;35.556;2023-12-22T14:18:04;28.50;;;13.90;;
73337;SDS011;61575;49.908;35.556;2023-12-22T14:21:07;28.58;;;14.65;;
73337;SDS011;61575;49.908;35.556;2023-12-22T14:24:09;32.40;;;15.20;;
73337;SDS011;61575;49.908;35.556;2023-12-22T14:27:11;89.95;;;37.60;;
73337;SDS011;61575;49.908;35.556;2023-12-22T14:30:13;194.30;;;73.37;;
73337;SDS011;61575;49.908;35.556;2023-12-22T14:33:15;101.15;;;48.25;;
73337;SDS011;61575;49.908;35.556;2023-12-22T14:36:18;85.20;;;49.33;;
73337;SDS011;61575;49.908;35.556;2023-12-22T14:39:20;35.10;;;19.33;;
73337;SDS011;61575;49.908;35.556;2023-12-22T14:42:22;33.58;;;17.45;;
73337;SDS011;61575;49.908;35.556;2023-12-22T14:45:24;28.58;;;14.45;;
73337;SDS011;61575;49.908;35.556;2023-12-22T14:48:26;28.15;;;14.23;;
73337;SDS011;61575;49.908;35.556;2023-12-22T14:51:29;25.83;;;13.93;;
73337;SDS011;61575;49.908;35.556;2023-12-22T14:54:31;25.83;;;12.80;;
73337;SDS011;61575;49.908;35.556;2023-12-22T14:57:33;25.33;;;12.73;;
73337;SDS011;61575;49.908;35.556;2023-12-22T15:00:38;66.10;;;27.48;;
73337;SDS011;61575;49.908;35.556;2023-12-22T15:03:40;31.13;;;15.35;;
73337;SDS011;61575;49.908;35.556;2023-12-22T15:06:42;30.60;;;14.32;;
73337;SDS011;61575;49.908;35.556;2023-12-22T15:09:47;35.95;;;16.70;;
73337;SDS011;61575;49.908;35.556;2023-12-22T15:12:50;25.48;;;13.02;;
73337;SDS011;61575;49.908;35.556;2023-12-22T15:15:52;28.05;;;14.00;;
73337;SDS011;61575;49.908;35.556;2023-12-22T15:18:55;34.30;;;17.57;;
73337;SDS011;61575;49.908;35.556;2023-12-22T15:21:57;23.52;;;12.23;;
73337;SDS011;61575;49.908;35.556;2023-12-22T15:24:59;26.37;;;13.83;;
73337;SDS011;61575;49.908;35.556;2023-12-22T15:28:01;24.40;;;13.27;;
73337;SDS011;61575;49.908;35.556;2023-12-22T15:31:07;24.80;;;12.25;;
73337;SDS011;61575;49.908;35.556;2023-12-22T15:34:09;28.63;;;13.25;;
73337;SDS011;61575;49.908;35.556;2023-12-22T15:37:12;38.67;;;17.13;;
73337;SDS011;61575;49.908;35.556;2023-12-22T15:40:14;42.25;;;19.45;;
73337;SDS011;61575;49.908;35.556;2023-12-22T15:43:16;35.55;;;16.58;;
73337;SDS011;61575;49.908;35.556;2023-12-22T15:46:18;44.57;;;18.57;;
73337;SDS011;61575;49.908;35.556;2023-12-22T15:49:20;59.17;;;21.57;;
73337;SDS011;61575;49.908;35.556;2023-12-22T15:52:23;34.97;;;15.85;;
73337;SDS011;61575;49.908;35.556;2023-12-22T15:55:25;50.40;;;21.27;;
73337;SDS011;61575;49.908;35.556;2023-12-22T15:58:27;31.98;;;14.93;;
73337;SDS011;61575;49.908;35.556;2023-12-22T16:01:29;27.23;;;13.90;;
73337;SDS011;61575;49.908;35.556;2023-12-22T16:04:31;33.60;;;14.40;;
73337;SDS011;61575;49.908;35.556;2023-12-22T16:07:34;35.97;;;17.13;;
73337;SDS011;61575;49.908;35.556;2023-12-22T16:10:36;48.45;;;19.30;;
73337;SDS011;61575;49.908;35.556;2023-12-22T16:13:38;37.67;;;16.25;;
73337;SDS011;61575;49.908;35.556;2023-12-22T16:16:44;34.55;;;16.20;;
73337;SDS011;61575;49.908;35.556;2023-12-22T16:19:47;78.55;;;27.45;;
73337;SDS011;61575;49.908;35.556;2023-12-22T16:22:49;36.03;;;16.67;;
73337;SDS011;61575;49.908;35.556;2023-12-22T16:25:52;96.68;;;34.05;;
73337;SDS011;61575;49.908;35.556;2023-12-22T16:28:57;107.20;;;39.08;;
73337;SDS011;61575;49.908;35.556;2023-12-22T16:32:00;56.20;;;21.77;;
73337;SDS011;61575;49.908;35.556;2023-12-22T16:38:05;57.30;;;24.08;;
73337;SDS011;61575;49.908;35.556;2023-12-22T16:41:07;37.83;;;17.23;;
73337;SDS011;61575;49.908;35.556;2023-12-22T16:44:11;39.88;;;18.42;;
73337;SDS011;61575;49.908;35.556;2023-12-22T16:47:13;41.28;;;19.17;;
73337;SDS011;61575;49.908;35.556;2023-12-22T16:50:17;58.10;;;24.77;;
73337;SDS011;61575;49.908;35.556;2023-12-22T16:53:19;47.47;;;22.02;;
73337;SDS011;61575;49.908;35.556;2023-12-22T16:56:21;52.40;;;23.38;;
73337;SDS011;61575;49.908;35.556;2023-12-22T16:59:23;83.30;;;35.63;;
73337;SDS011;61575;49.908;35.556;2023-12-22T17:02:27;48.58;;;20.98;;
73337;SDS011;61575;49.908;35.556;2023-12-22T17:05:34;49.42;;;22.63;;
73337;SDS011;61575;49.908;35.556;2023-12-22T17:08:36;60.33;;;23.88;;
73337;SDS011;61575;49.908;35.556;2023-12-22T17:11:39;68.15;;;29.10;;
73337;SDS011;61575;49.908;35.556;2023-12-22T17:14:41;46.67;;;20.53;;
73337;SDS011;61575;49.908;35.556;2023-12-22T17:17:43;49.03;;;20.87;;
73337;SDS011;61575;49.908;35.556;2023-12-22T17:20:45;76.15;;;27.58;;
73337;SDS011;61575;49.908;35.556;2023-12-22T17:23:59;98.63;;;36.53;;
73337;SDS011;61575;49.908;35.556;2023-12-22T17:27:01;82.70;;;31.70;;
73337;SDS011;61575;49.908;35.556;2023-12-22T17:30:03;39.87;;;16.97;;
73337;SDS011;61575;49.908;35.556;2023-12-22T17:33:06;70.22;;;24.45;;
73337;SDS011;61575;49.908;35.556;2023-12-22T17:36:08;64.47;;;24.83;;
73337;SDS011;61575;49.908;35.556;2023-12-22T17:39:11;64.78;;;28.85;;
73337;SDS011;61575;49.908;35.556;2023-12-22T17:42:13;44.50;;;20.43;;
73337;SDS011;61575;49.908;35.556;2023-12-22T17:45:15;41.00;;;17.87;;
73337;SDS011;61575;49.908;35.556;2023-12-22T17:48:18;30.47;;;15.27;;
73337;SDS011;61575;49.908;35.556;2023-12-22T17:51:20;31.40;;;14.55;;
73337;SDS011;61575;49.908;35.556;2023-12-22T17:54:22;47.75;;;20.85;;
73337;SDS011;61575;49.908;35.556;2023-12-22T17:57:24;45.78;;;20.75;;